RKPC

Jeju

Airport
ICAO code
RKPC
Summary
ICAO Region
APAC
ICAO Territory
Location

Jeju,

Coordinates
33° 30' 41" N , 126° 29' 35" E
KCC
Metar
RKPC 282300Z 10012KT 4000 -RA BR SCT016 BKN025 OVC070 08/07 Q1021 NOSIG

Description

Jeju International Airport serves many mainland destinations in South Korea, as well as international destinations in China, Japan, and Taiwan.

Climatology

Warm continental climate/Humid continental climate/Humid subtropical climate (Köppen climate classification Dwa/Cwa)

Runways

Designator Length Width Surface Rops
13/31 1910 45 ASP Yes/Yes
6/24 3000 45 ASP Yes/Yes

Airport map

Aerial View

SKYbrary Partners:

Safety knowledge contributed by: